Time;durP1;ratioP1;P1;durP2;ratioP2;P2;SDS_P1;SDS_P2;PMS_P1;PMS_P2;Temp;Humidity;BMP_temperature;BMP_pressure;BME280_temperature;BME280_humidity;BME280_pressure;Samples;Min_cycle;Max_cycle;Signal;HPM_P1;HPM_P2
2023/11/11 00:00:47;;;;;;;9.02;5.03;;;;;;;;;;6216351;23;20167;-92
2023/11/11 00:03:55;;;;;;;13.60;5.50;;;;;;;;;;6214884;23;20179;-91
2023/11/11 00:07:01;;;;;;;9.90;4.80;;;;;;;;;;6218768;22;20194;-91
2023/11/11 00:10:11;;;;;;;9.40;5.10;;;;;;;;;;6217681;22;20207;-92
2023/11/11 00:13:21;;;;;;;7.87;4.37;;;;;;;;;;6215754;23;20176;-91
2023/11/11 00:16:30;;;;;;;12.90;4.83;;;;;;;;;;6213890;23;20175;-90
2023/11/11 00:19:36;;;;;;;9.97;4.40;;;;;;;;;;6213791;22;20151;-90
2023/11/11 00:22:41;;;;;;;10.87;4.37;;;;;;;;;;6213919;22;20168;-90
2023/11/11 00:25:51;;;;;;;7.33;4.37;;;;;;;;;;6215011;23;20238;-90
2023/11/11 00:28:57;;;;;;;9.33;4.73;;;;;;;;;;6214671;23;20611;-90
2023/11/11 00:32:06;;;;;;;10.03;4.90;;;;;;;;;;6217219;22;20183;-90
2023/11/11 00:35:17;;;;;;;9.47;4.57;;;;;;;;;;6216527;22;20171;-92
2023/11/11 00:38:24;;;;;;;8.67;4.70;;;;;;;;;;6219296;23;20178;-90
2023/11/11 00:41:37;;;;;;;6.73;4.23;;;;;;;;;;6216143;23;20219;-92
2023/11/11 00:44:48;;;;;;;8.40;4.57;;;;;;;;;;6217792;23;20216;-90
2023/11/11 00:51:13;;;;;;;8.90;4.60;;;;;;;;;;6217845;22;20196;-91
2023/11/11 00:54:22;;;;;;;13.03;5.43;;;;;;;;;;6217623;22;20163;-91
2023/11/11 00:57:33;;;;;;;7.80;4.80;;;;;;;;;;6218329;23;20264;-91
2023/11/11 01:00:39;;;;;;;17.60;4.73;;;;;;;;;;6218077;23;20202;-91
2023/11/11 01:03:50;;;;;;;11.13;5.20;;;;;;;;;;6218043;23;20220;-91
2023/11/11 01:06:57;;;;;;;13.40;5.50;;;;;;;;;;6219958;23;20210;-92
2023/11/11 01:10:07;;;;;;;9.03;4.97;;;;;;;;;;6219455;23;20162;-92
2023/11/11 01:13:16;;;;;;;9.80;4.87;;;;;;;;;;6218882;23;20163;-90
2023/11/11 01:16:22;;;;;;;9.63;5.30;;;;;;;;;;6219889;23;20211;-91
2023/11/11 01:19:28;;;;;;;8.83;5.03;;;;;;;;;;6218504;23;20252;-89
2023/11/11 01:25:53;;;;;;;11.60;4.80;;;;;;;;;;6217223;23;20183;-90
2023/11/11 01:29:14;;;;;;;7.10;4.03;;;;;;;;;;6217661;22;20191;-92
2023/11/11 01:32:40;;;;;;;8.27;3.80;;;;;;;;;;6216168;23;20250;-90
2023/11/11 01:35:48;;;;;;;8.63;4.90;;;;;;;;;;6216911;23;20175;-91
2023/11/11 01:38:55;;;;;;;9.10;4.30;;;;;;;;;;6217909;22;20222;-89
2023/11/11 01:42:01;;;;;;;6.97;4.10;;;;;;;;;;6217164;23;20171;-92
2023/11/11 01:51:51;;;;;;;8.13;4.20;;;;;;;;;;6218141;23;20179;-89
2023/11/11 02:01:37;;;;;;;10.00;4.57;;;;;;;;;;6218430;22;20293;-91
2023/11/11 02:08:15;;;;;;;9.83;4.70;;;;;;;;;;6219054;23;20236;-89
2023/11/11 02:11:21;;;;;;;9.30;4.20;;;;;;;;;;6219038;22;20175;-90
2023/11/11 02:14:34;;;;;;;8.93;4.67;;;;;;;;;;6220047;22;20200;-92
2023/11/11 02:17:45;;;;;;;7.30;4.03;;;;;;;;;;6217931;22;20307;-91
2023/11/11 02:20:51;;;;;;;6.33;4.10;;;;;;;;;;6216886;23;20175;-91
2023/11/11 02:24:00;;;;;;;7.50;4.03;;;;;;;;;;6214103;23;20187;-91
2023/11/11 02:27:06;;;;;;;6.13;3.83;;;;;;;;;;6215788;23;20214;-92
2023/11/11 02:30:12;;;;;;;8.63;4.20;;;;;;;;;;6214462;23;20155;-92
2023/11/11 02:33:18;;;;;;;9.63;4.33;;;;;;;;;;6214289;23;20176;-92
2023/11/11 02:36:24;;;;;;;10.33;4.53;;;;;;;;;;6215616;23;20191;-91
2023/11/11 02:39:31;;;;;;;6.33;3.83;;;;;;;;;;6213380;23;20259;-91
2023/11/11 02:42:36;;;;;;;10.07;4.67;;;;;;;;;;6214022;23;20171;-91
2023/11/11 02:45:44;;;;;;;11.70;4.57;;;;;;;;;;6213568;22;20212;-92
2023/11/11 02:48:50;;;;;;;9.30;4.07;;;;;;;;;;6212912;23;20166;-91
2023/11/11 02:51:55;;;;;;;9.27;4.27;;;;;;;;;;6212953;23;20171;-90
2023/11/11 02:55:04;;;;;;;9.23;4.33;;;;;;;;;;6214568;23;20187;-92
2023/11/11 02:58:10;;;;;;;7.50;4.10;;;;;;;;;;6214653;23;20163;-91
2023/11/11 03:01:15;;;;;;;7.53;3.93;;;;;;;;;;6214719;23;20175;-91
2023/11/11 03:04:21;;;;;;;9.67;4.40;;;;;;;;;;6213683;23;20219;-91
2023/11/11 03:07:26;;;;;;;8.60;4.47;;;;;;;;;;6214935;23;20191;-91
2023/11/11 03:10:33;;;;;;;8.90;4.57;;;;;;;;;;6213081;23;20175;-90
2023/11/11 03:13:39;;;;;;;7.87;4.40;;;;;;;;;;6213011;22;20203;-92
2023/11/11 03:16:44;;;;;;;7.33;4.23;;;;;;;;;;6211347;23;20195;-92
2023/11/11 03:19:50;;;;;;;10.43;4.03;;;;;;;;;;6211190;23;20617;-88
2023/11/11 03:22:56;;;;;;;11.70;4.63;;;;;;;;;;6211002;23;20168;-91
2023/11/11 03:26:03;;;;;;;9.23;4.70;;;;;;;;;;6213789;22;20144;-91
2023/11/11 03:29:08;;;;;;;8.13;4.50;;;;;;;;;;6213090;23;20167;-90
2023/11/11 03:32:14;;;;;;;8.57;4.60;;;;;;;;;;6213741;23;20167;-90
2023/11/11 03:35:21;;;;;;;8.70;5.10;;;;;;;;;;6213835;23;20214;-89
2023/11/11 03:38:30;;;;;;;8.47;4.83;;;;;;;;;;6213665;22;20258;-90
2023/11/11 03:41:37;;;;;;;9.27;5.13;;;;;;;;;;6214256;23;20167;-90
2023/11/11 03:44:42;;;;;;;13.00;6.13;;;;;;;;;;6214066;23;20172;-91
2023/11/11 03:47:52;;;;;;;9.80;5.43;;;;;;;;;;6213640;23;20179;-90
2023/11/11 03:50:57;;;;;;;13.93;5.50;;;;;;;;;;6213440;23;20171;-92
2023/11/11 03:54:02;;;;;;;19.87;8.30;;;;;;;;;;6214928;22;20151;-92
2023/11/11 03:57:09;;;;;;;16.93;7.13;;;;;;;;;;6213903;23;20246;-91
2023/11/11 04:00:17;;;;;;;12.17;5.10;;;;;;;;;;6214815;23;20163;-92
2023/11/11 04:03:22;;;;;;;9.70;4.90;;;;;;;;;;6214605;22;20167;-91
2023/11/11 04:06:27;;;;;;;11.70;5.47;;;;;;;;;;6213013;23;20238;-92
2023/11/11 04:09:33;;;;;;;9.20;4.93;;;;;;;;;;6212971;23;20152;-93
2023/11/11 04:12:40;;;;;;;11.00;5.27;;;;;;;;;;6212537;23;20171;-92
2023/11/11 04:15:46;;;;;;;10.17;5.37;;;;;;;;;;6213777;23;20507;-92
2023/11/11 04:18:51;;;;;;;11.27;5.00;;;;;;;;;;6213593;22;20171;-89
2023/11/11 04:21:56;;;;;;;11.70;5.47;;;;;;;;;;6212325;22;20167;-92
2023/11/11 04:25:05;;;;;;;8.83;4.83;;;;;;;;;;6213422;23;20170;-91
2023/11/11 04:28:12;;;;;;;8.10;4.97;;;;;;;;;;6213323;23;20243;-91
2023/11/11 04:31:18;;;;;;;11.37;5.40;;;;;;;;;;6212719;23;20217;-91
2023/11/11 04:34:24;;;;;;;10.70;5.13;;;;;;;;;;6212270;23;20245;-91
2023/11/11 04:37:30;;;;;;;18.07;6.33;;;;;;;;;;6211547;22;20159;-91
2023/11/11 04:40:36;;;;;;;12.03;5.77;;;;;;;;;;6211473;23;20171;-92
2023/11/11 04:43:43;;;;;;;10.07;5.30;;;;;;;;;;6210000;23;20174;-91
2023/11/11 04:46:48;;;;;;;13.00;5.73;;;;;;;;;;6210854;23;20614;-91
2023/11/11 04:49:53;;;;;;;10.90;5.83;;;;;;;;;;6209644;23;20171;-92
2023/11/11 04:52:58;;;;;;;10.87;5.40;;;;;;;;;;6211348;23;20198;-92
2023/11/11 04:56:03;;;;;;;10.23;5.17;;;;;;;;;;6209912;23;20237;-91
2023/11/11 04:59:13;;;;;;;10.87;5.83;;;;;;;;;;6209891;23;20587;-92
2023/11/11 05:02:19;;;;;;;13.47;6.00;;;;;;;;;;6209867;23;20158;-91
2023/11/11 05:05:24;;;;;;;13.27;6.07;;;;;;;;;;6207561;23;20175;-90
2023/11/11 05:08:29;;;;;;;10.33;5.97;;;;;;;;;;6209181;23;20206;-92
2023/11/11 05:11:34;;;;;;;11.63;5.77;;;;;;;;;;6210235;23;20167;-92
2023/11/11 05:14:41;;;;;;;11.63;5.63;;;;;;;;;;6210806;23;20245;-92
2023/11/11 05:17:46;;;;;;;11.20;5.87;;;;;;;;;;6210521;23;20242;-93
2023/11/11 05:20:52;;;;;;;15.90;6.17;;;;;;;;;;6211178;23;20191;-90
2023/11/11 05:23:57;;;;;;;11.07;6.17;;;;;;;;;;6211547;22;20155;-92
2023/11/11 05:27:06;;;;;;;10.27;5.13;;;;;;;;;;6210306;23;20166;-92
2023/11/11 05:30:13;;;;;;;8.90;4.83;;;;;;;;;;6211510;23;20163;-91
2023/11/11 05:33:18;;;;;;;9.27;3.97;;;;;;;;;;6210838;22;20663;-93
2023/11/11 05:36:24;;;;;;;6.90;3.80;;;;;;;;;;6210977;22;20216;-92
2023/11/11 05:39:29;;;;;;;7.07;3.37;;;;;;;;;;6211252;22;20318;-92
2023/11/11 05:42:34;;;;;;;6.37;2.70;;;;;;;;;;6210670;23;20271;-92
2023/11/11 05:45:41;;;;;;;8.87;2.70;;;;;;;;;;6210932;23;20250;-87
2023/11/11 05:48:46;;;;;;;5.60;2.23;;;;;;;;;;6209759;23;20195;-89
2023/11/11 05:51:51;;;;;;;3.30;1.70;;;;;;;;;;6210361;22;20167;-92
2023/11/11 05:54:56;;;;;;;4.70;1.97;;;;;;;;;;6209780;23;20175;-91
2023/11/11 05:58:02;;;;;;;3.50;1.93;;;;;;;;;;6210050;23;20186;-91
2023/11/11 06:01:09;;;;;;;3.77;1.63;;;;;;;;;;6209055;23;20504;-91
2023/11/11 06:04:15;;;;;;;2.67;1.57;;;;;;;;;;6209723;23;20590;-90
2023/11/11 06:07:20;;;;;;;2.93;1.60;;;;;;;;;;6210492;22;20171;-91
2023/11/11 06:10:25;;;;;;;5.67;1.47;;;;;;;;;;6210093;23;20186;-92
2023/11/11 06:13:31;;;;;;;2.10;1.20;;;;;;;;;;6210812;23;20166;-93
2023/11/11 06:16:38;;;;;;;2.67;1.20;;;;;;;;;;6211589;23;20171;-92
2023/11/11 06:19:43;;;;;;;1.77;1.10;;;;;;;;;;6210509;22;20190;-89
2023/11/11 06:22:52;;;;;;;1.10;1.00;;;;;;;;;;6210718;22;20167;-90
2023/11/11 06:26:07;;;;;;;1.53;1.00;;;;;;;;;;6209929;23;20492;-91
2023/11/11 06:29:12;;;;;;;1.93;1.10;;;;;;;;;;6212256;23;20195;-91
2023/11/11 06:32:19;;;;;;;3.40;1.10;;;;;;;;;;6212498;23;20171;-91
2023/11/11 06:35:27;;;;;;;4.07;1.10;;;;;;;;;;6212176;23;20622;-90
2023/11/11 06:38:32;;;;;;;1.60;1.07;;;;;;;;;;6212567;23;20702;-91
2023/11/11 06:41:38;;;;;;;1.77;1.00;;;;;;;;;;6211611;23;20171;-91
2023/11/11 06:44:43;;;;;;;4.80;1.00;;;;;;;;;;6212188;23;20179;-92
2023/11/11 06:47:50;;;;;;;3.17;1.30;;;;;;;;;;6210939;23;20199;-92
2023/11/11 06:50:55;;;;;;;4.27;1.47;;;;;;;;;;6210146;23;20167;-92
2023/11/11 06:54:01;;;;;;;2.70;1.33;;;;;;;;;;6210950;23;20171;-93
2023/11/11 06:57:06;;;;;;;2.20;1.30;;;;;;;;;;6210226;23;20246;-92
2023/11/11 07:00:15;;;;;;;5.23;1.80;;;;;;;;;;6212537;23;20230;-92
2023/11/11 07:03:22;;;;;;;3.90;1.77;;;;;;;;;;6212413;22;20183;-93
2023/11/11 07:06:28;;;;;;;0.40;0.40;;;;;;;;;;6212421;22;20171;-94
2023/11/11 07:09:33;;;;;;;0.60;0.60;;;;;;;;;;6211035;23;20178;-91
2023/11/11 07:12:39;;;;;;;0.30;0.30;;;;;;;;;;6212166;23;20167;-93
2023/11/11 07:15:44;;;;;;;0.40;0.40;;;;;;;;;;6212175;23;20167;-90
2023/11/11 07:18:51;;;;;;;0.40;0.40;;;;;;;;;;6212388;23;20187;-92
2023/11/11 07:21:58;;;;;;;0.30;0.30;;;;;;;;;;6211783;23;20171;-92
2023/11/11 07:25:05;;;;;;;0.30;0.30;;;;;;;;;;6212123;23;20623;-92
2023/11/11 07:28:11;;;;;;;0.50;0.50;;;;;;;;;;6211127;23;20238;-92
2023/11/11 07:31:16;;;;;;;0.30;0.30;;;;;;;;;;6212065;23;20224;-90
2023/11/11 07:34:24;;;;;;;0.40;0.40;;;;;;;;;;6213985;22;20172;-94
2023/11/11 07:37:29;;;;;;;2.77;0.90;;;;;;;;;;6212896;23;20257;-90
2023/11/11 07:40:34;;;;;;;0.40;0.40;;;;;;;;;;6211731;23;20172;-93
2023/11/11 07:43:40;;;;;;;1.53;0.73;;;;;;;;;;6210099;23;20290;-90
2023/11/11 07:46:45;;;;;;;0.40;0.40;;;;;;;;;;6213249;22;20163;-91
2023/11/11 07:49:52;;;;;;;0.50;0.50;;;;;;;;;;6212974;23;20242;-92
2023/11/11 07:52:57;;;;;;;0.50;0.50;;;;;;;;;;6212214;22;20175;-89
2023/11/11 07:56:03;;;;;;;0.40;0.40;;;;;;;;;;6212785;23;20195;-90
2023/11/11 07:59:07;;;;;;;0.40;0.40;;;;;;;;;;6213397;23;20235;-91
2023/11/11 08:02:14;;;;;;;0.33;0.33;;;;;;;;;;6213723;23;20171;-90
2023/11/11 08:05:23;;;;;;;0.30;0.30;;;;;;;;;;6215109;23;20154;-90
2023/11/11 08:08:29;;;;;;;0.33;0.33;;;;;;;;;;6211828;23;20191;-92
2023/11/11 08:11:34;;;;;;;0.30;0.30;;;;;;;;;;6213065;23;20171;-93
2023/11/11 08:14:39;;;;;;;0.87;0.50;;;;;;;;;;6212091;23;20187;-92
2023/11/11 08:17:45;;;;;;;0.60;0.60;;;;;;;;;;6212974;23;20171;-90
2023/11/11 08:20:53;;;;;;;0.30;0.30;;;;;;;;;;6215319;22;20159;-90
2023/11/11 08:23:58;;;;;;;0.40;0.40;;;;;;;;;;6211548;22;20210;-90
2023/11/11 08:27:04;;;;;;;0.30;0.30;;;;;;;;;;6212862;23;20152;-89
2023/11/11 08:30:11;;;;;;;0.63;0.50;;;;;;;;;;6214031;22;20183;-90
2023/11/11 08:33:17;;;;;;;0.40;0.40;;;;;;;;;;6214757;22;20167;-92
2023/11/11 08:36:25;;;;;;;0.30;0.30;;;;;;;;;;6216809;22;20159;-91
2023/11/11 08:39:31;;;;;;;1.03;0.70;;;;;;;;;;6216318;22;20210;-93
2023/11/11 08:42:36;;;;;;;0.30;0.30;;;;;;;;;;6216406;22;20171;-90
2023/11/11 08:45:42;;;;;;;0.30;0.30;;;;;;;;;;6217765;23;20152;-90
2023/11/11 08:48:47;;;;;;;0.30;0.30;;;;;;;;;;6216044;23;20195;-91
2023/11/11 08:51:55;;;;;;;0.30;0.30;;;;;;;;;;6215285;22;20171;-93
2023/11/11 08:55:00;;;;;;;0.30;0.30;;;;;;;;;;6214485;22;20167;-94
2023/11/11 08:58:06;;;;;;;0.47;0.47;;;;;;;;;;6216245;22;20171;-93
2023/11/11 09:01:13;;;;;;;0.30;0.30;;;;;;;;;;6216594;23;20201;-89
2023/11/11 09:04:28;;;;;;;0.30;0.30;;;;;;;;;;6222074;22;20219;-92
2023/11/11 09:07:57;;;;;;;0.40;0.40;;;;;;;;;;6225263;22;20195;-91
2023/11/11 14:08:17;;;;;;;3.93;1.20;;;;;;;;;;6187788;22;20216;-94
2023/11/11 14:11:42;;;;;;;2.67;1.10;;;;;;;;;;6215900;23;20214;-89
2023/11/11 14:14:57;;;;;;;4.10;1.30;;;;;;;;;;6215613;22;20171;-88
2023/11/11 14:18:03;;;;;;;2.77;1.20;;;;;;;;;;6215247;23;20183;-91
2023/11/11 14:21:08;;;;;;;2.53;1.43;;;;;;;;;;6215192;23;20191;-90
2023/11/11 14:24:17;;;;;;;1.50;1.03;;;;;;;;;;6214054;23;20171;-91
2023/11/11 14:27:22;;;;;;;1.93;1.40;;;;;;;;;;6213000;23;20211;-91
2023/11/11 14:30:28;;;;;;;4.87;1.23;;;;;;;;;;6214533;22;20193;-90
2023/11/11 14:33:34;;;;;;;1.40;1.00;;;;;;;;;;6216222;22;20167;-90
2023/11/11 14:36:39;;;;;;;1.50;1.00;;;;;;;;;;6214605;23;20171;-89
2023/11/11 14:39:47;;;;;;;4.83;1.30;;;;;;;;;;6215229;23;20615;-91
2023/11/11 14:42:56;;;;;;;2.67;1.50;;;;;;;;;;6215040;22;20151;-89
2023/11/11 14:46:02;;;;;;;2.10;1.20;;;;;;;;;;6215671;23;20207;-89
2023/11/11 14:49:09;;;;;;;3.27;1.30;;;;;;;;;;6215084;23;20230;-89
2023/11/11 14:52:15;;;;;;;3.53;1.67;;;;;;;;;;6212536;23;20187;-91
2023/11/11 14:55:24;;;;;;;2.85;1.50;;;;;;;;;;6212501;23;20172;-91
2023/11/11 14:58:41;;;;;;;4.63;1.40;;;;;;;;;;6214057;22;20155;-93
2023/11/11 15:05:08;;;;;;;3.03;1.37;;;;;;;;;;6215071;23;20218;-89
2023/11/11 15:08:14;;;;;;;3.63;1.70;;;;;;;;;;6215201;23;20195;-89
2023/11/11 15:14:41;;;;;;;7.07;3.13;;;;;;;;;;6216248;22;20183;-91
2023/11/11 15:17:48;;;;;;;9.73;3.00;;;;;;;;;;6215645;23;20243;-91
2023/11/11 15:20:53;;;;;;;9.67;2.70;;;;;;;;;;6215368;23;20166;-93
2023/11/11 15:24:01;;;;;;;4.53;2.20;;;;;;;;;;6214460;22;20154;-89
2023/11/11 15:27:09;;;;;;;6.53;3.00;;;;;;;;;;6214939;22;20179;-91
2023/11/11 15:30:19;;;;;;;5.63;3.00;;;;;;;;;;6219385;22;20198;-91
2023/11/11 15:33:34;;;;;;;5.87;2.50;;;;;;;;;;6217656;23;20171;-89
2023/11/11 15:36:41;;;;;;;8.13;2.97;;;;;;;;;;6216930;22;20176;-89
2023/11/11 15:39:46;;;;;;;5.80;3.00;;;;;;;;;;6217361;23;20170;-89
2023/11/11 15:42:53;;;;;;;6.13;3.30;;;;;;;;;;6216495;22;20159;-91
2023/11/11 15:46:07;;;;;;;6.63;3.03;;;;;;;;;;6218522;23;20332;-90
2023/11/11 15:49:19;;;;;;;5.67;3.13;;;;;;;;;;6220191;22;20236;-87
2023/11/11 15:52:26;;;;;;;5.90;3.33;;;;;;;;;;6218307;22;20175;-90
2023/11/11 15:59:07;;;;;;;5.87;3.10;;;;;;;;;;6215506;23;20214;-91
2023/11/11 16:02:12;;;;;;;5.70;3.13;;;;;;;;;;6215860;23;20581;-92
2023/11/11 16:05:17;;;;;;;5.70;2.90;;;;;;;;;;6232714;22;20171;-89
2023/11/11 16:08:23;;;;;;;7.07;2.90;;;;;;;;;;6231057;23;20199;-91
2023/11/11 16:11:29;;;;;;;5.60;3.10;;;;;;;;;;6231486;22;20178;-88
2023/11/11 16:14:35;;;;;;;6.03;3.47;;;;;;;;;;6230577;23;20175;-91
2023/11/11 16:21:02;;;;;;;10.60;4.50;;;;;;;;;;6229911;22;20614;-90
2023/11/11 16:24:09;;;;;;;10.33;5.60;;;;;;;;;;6232207;22;20164;-91
2023/11/11 16:27:16;;;;;;;11.03;5.53;;;;;;;;;;6231065;22;20183;-89
2023/11/11 16:30:24;;;;;;;15.77;5.50;;;;;;;;;;6229843;22;20239;-88
2023/11/11 16:33:38;;;;;;;16.80;7.57;;;;;;;;;;6233342;22;20214;-89
2023/11/11 16:36:46;;;;;;;15.70;6.83;;;;;;;;;;6231856;23;20258;-90
2023/11/11 16:39:52;;;;;;;17.20;8.20;;;;;;;;;;6232517;22;20167;-89
2023/11/11 16:42:58;;;;;;;18.53;8.67;;;;;;;;;;6231832;23;20166;-92
2023/11/11 16:46:05;;;;;;;17.43;8.07;;;;;;;;;;6232277;23;20219;-88
2023/11/11 16:49:10;;;;;;;15.33;8.00;;;;;;;;;;6231641;22;20191;-89
2023/11/11 16:52:16;;;;;;;17.97;8.57;;;;;;;;;;6231080;23;20167;-91
2023/11/11 16:55:22;;;;;;;19.13;8.33;;;;;;;;;;6231324;23;20175;-89
2023/11/11 16:58:27;;;;;;;19.60;8.50;;;;;;;;;;6231370;22;20175;-92
2023/11/11 17:01:43;;;;;;;18.53;8.10;;;;;;;;;;6230987;23;20179;-91
2023/11/11 17:04:49;;;;;;;17.27;8.27;;;;;;;;;;6234284;23;20243;-90
2023/11/11 17:07:57;;;;;;;38.40;18.47;;;;;;;;;;6232571;22;20193;-89
2023/11/11 17:11:03;;;;;;;23.17;9.53;;;;;;;;;;6230857;23;20297;-92
2023/11/11 17:14:08;;;;;;;17.63;8.00;;;;;;;;;;6231417;22;20150;-90
2023/11/11 17:17:31;;;;;;;23.73;10.77;;;;;;;;;;6233729;22;20195;-89
2023/11/11 17:20:38;;;;;;;20.40;9.87;;;;;;;;;;6231590;22;20174;-88
2023/11/11 17:23:44;;;;;;;54.47;24.07;;;;;;;;;;6232872;22;20178;-90
2023/11/11 17:27:15;;;;;;;21.13;9.30;;;;;;;;;;6232362;22;20151;-90
2023/11/11 17:30:20;;;;;;;17.40;8.27;;;;;;;;;;6232392;22;20195;-92
2023/11/11 17:33:43;;;;;;;13.60;7.23;;;;;;;;;;6235238;22;20216;-89
2023/11/11 17:36:49;;;;;;;17.70;8.50;;;;;;;;;;6234466;22;20156;-89
2023/11/11 17:39:54;;;;;;;16.47;7.27;;;;;;;;;;6232411;22;20265;-92
2023/11/11 17:43:03;;;;;;;14.13;7.03;;;;;;;;;;6231056;22;20170;-89
2023/11/11 17:46:09;;;;;;;18.70;7.30;;;;;;;;;;6232390;22;20195;-91
2023/11/11 17:49:16;;;;;;;14.80;7.27;;;;;;;;;;6232539;22;20299;-89
2023/11/11 17:52:22;;;;;;;13.90;7.20;;;;;;;;;;6230619;22;20239;-90
2023/11/11 17:55:30;;;;;;;21.40;8.67;;;;;;;;;;6232815;22;20179;-93
2023/11/11 17:58:35;;;;;;;23.00;11.43;;;;;;;;;;6231848;22;20245;-89
2023/11/11 18:01:40;;;;;;;25.63;11.33;;;;;;;;;;6232267;22;20166;-90
2023/11/11 18:04:47;;;;;;;27.07;13.10;;;;;;;;;;6214924;23;20238;-90
2023/11/11 18:07:54;;;;;;;25.00;10.47;;;;;;;;;;6213963;22;20191;-89
2023/11/11 18:11:00;;;;;;;22.97;9.93;;;;;;;;;;6213048;22;20199;-89
2023/11/11 18:17:25;;;;;;;23.33;10.50;;;;;;;;;;6212901;23;20657;-90
2023/11/11 18:20:33;;;;;;;21.67;10.60;;;;;;;;;;6212536;23;20178;-91
2023/11/11 18:23:40;;;;;;;17.73;7.90;;;;;;;;;;6211053;23;20166;-93
2023/11/11 18:26:46;;;;;;;18.23;8.70;;;;;;;;;;6213432;22;20163;-91
2023/11/11 18:29:52;;;;;;;21.87;11.00;;;;;;;;;;6213106;23;20191;-88
2023/11/11 18:32:58;;;;;;;27.57;12.07;;;;;;;;;;6211776;23;20171;-87
2023/11/11 18:36:05;;;;;;;17.97;8.97;;;;;;;;;;6212625;23;20167;-90
2023/11/11 18:39:12;;;;;;;17.13;8.60;;;;;;;;;;6209821;23;20547;-88
2023/11/11 18:42:17;;;;;;;19.40;8.57;;;;;;;;;;6210860;22;20224;-88
2023/11/11 18:45:24;;;;;;;26.53;10.70;;;;;;;;;;6212500;22;20286;-92
2023/11/11 18:48:29;;;;;;;20.67;9.63;;;;;;;;;;6210969;23;20171;-90
2023/11/11 18:51:36;;;;;;;18.23;9.00;;;;;;;;;;6210486;22;20202;-89
2023/11/11 18:54:42;;;;;;;20.43;9.13;;;;;;;;;;6210902;23;20199;-88
2023/11/11 18:57:47;;;;;;;24.03;11.23;;;;;;;;;;6212578;23;20175;-90
2023/11/11 19:00:54;;;;;;;18.00;7.97;;;;;;;;;;6212405;22;20167;-87
2023/11/11 19:04:04;;;;;;;24.67;9.90;;;;;;;;;;6213979;23;20167;-90
2023/11/11 19:07:11;;;;;;;34.37;13.77;;;;;;;;;;6213362;22;21104;-91
2023/11/11 19:10:16;;;;;;;37.23;15.27;;;;;;;;;;6211578;23;20200;-90
2023/11/11 19:13:25;;;;;;;37.67;15.23;;;;;;;;;;6211462;23;20143;-92
2023/11/11 19:16:30;;;;;;;39.67;14.60;;;;;;;;;;6211527;22;20167;-87
2023/11/11 19:19:37;;;;;;;28.37;11.67;;;;;;;;;;6214164;22;20195;-88
2023/11/11 19:22:44;;;;;;;32.37;12.93;;;;;;;;;;6217467;23;20174;-90
2023/11/11 19:25:50;;;;;;;16.83;6.90;;;;;;;;;;6213795;23;20171;-89
2023/11/11 19:28:56;;;;;;;15.47;6.90;;;;;;;;;;6216025;22;20167;-91
2023/11/11 19:32:04;;;;;;;11.00;5.40;;;;;;;;;;6212544;22;20222;-89
2023/11/11 19:35:11;;;;;;;11.63;5.20;;;;;;;;;;6216737;22;20495;-89
2023/11/11 19:38:18;;;;;;;11.63;6.60;;;;;;;;;;6214226;23;20202;-92
2023/11/11 19:41:24;;;;;;;11.67;5.80;;;;;;;;;;6211955;23;20253;-88
2023/11/11 19:44:32;;;;;;;18.30;6.77;;;;;;;;;;6213396;22;20175;-87
2023/11/11 19:47:38;;;;;;;13.53;6.73;;;;;;;;;;6216036;22;20163;-86
2023/11/11 19:50:43;;;;;;;15.50;7.00;;;;;;;;;;6215224;23;20210;-86
2023/11/11 19:53:50;;;;;;;15.13;7.90;;;;;;;;;;6211555;23;20167;-92
2023/11/11 19:56:55;;;;;;;11.40;6.57;;;;;;;;;;6212812;23;20229;-90
2023/11/11 20:00:01;;;;;;;14.50;6.70;;;;;;;;;;6214538;22;20171;-87
2023/11/11 20:03:07;;;;;;;15.77;7.27;;;;;;;;;;6210886;22;20206;-92
2023/11/11 20:06:13;;;;;;;14.80;6.57;;;;;;;;;;6214246;23;20190;-91
2023/11/11 20:09:21;;;;;;;16.67;6.43;;;;;;;;;;6213716;23;20662;-92
2023/11/11 20:12:26;;;;;;;10.87;6.30;;;;;;;;;;6213477;23;20167;-91
2023/11/11 20:15:32;;;;;;;20.90;6.53;;;;;;;;;;6212751;22;20215;-90
2023/11/11 20:18:37;;;;;;;13.03;6.03;;;;;;;;;;6215476;23;20166;-93
2023/11/11 20:21:43;;;;;;;14.07;6.60;;;;;;;;;;6213854;23;20220;-91
2023/11/11 20:24:51;;;;;;;12.80;6.50;;;;;;;;;;6214414;23;20224;-90
2023/11/11 20:28:00;;;;;;;20.50;8.03;;;;;;;;;;6213518;23;20171;-91
2023/11/11 20:31:05;;;;;;;13.57;6.50;;;;;;;;;;6212572;23;20190;-89
2023/11/11 20:34:11;;;;;;;23.33;9.00;;;;;;;;;;6215977;23;20167;-92
2023/11/11 20:37:18;;;;;;;14.27;6.60;;;;;;;;;;6214118;23;20179;-88
2023/11/11 20:40:25;;;;;;;11.70;6.40;;;;;;;;;;6213329;23;20170;-91
2023/11/11 20:43:33;;;;;;;11.67;6.17;;;;;;;;;;6213084;23;20170;-91
2023/11/11 20:46:38;;;;;;;12.40;6.30;;;;;;;;;;6212984;23;20179;-90
2023/11/11 20:49:43;;;;;;;10.07;5.73;;;;;;;;;;6216264;22;20268;-89
2023/11/11 20:52:50;;;;;;;10.73;5.60;;;;;;;;;;6215132;22;20196;-89
2023/11/11 20:55:57;;;;;;;14.00;7.20;;;;;;;;;;6213055;23;20206;-89
2023/11/11 20:59:03;;;;;;;11.77;5.77;;;;;;;;;;6213823;23;20243;-90
2023/11/11 21:02:08;;;;;;;12.10;5.43;;;;;;;;;;6211146;23;20171;-90
2023/11/11 21:05:14;;;;;;;10.27;4.83;;;;;;;;;;6212932;23;20196;-90
2023/11/11 21:08:20;;;;;;;9.77;4.37;;;;;;;;;;6213692;22;20283;-87
2023/11/11 21:11:31;;;;;;;13.33;5.90;;;;;;;;;;6221499;23;20297;-89
2023/11/11 21:14:37;;;;;;;13.80;5.27;;;;;;;;;;6221021;22;20167;-88
2023/11/11 21:17:42;;;;;;;11.07;5.70;;;;;;;;;;6213211;23;20167;-87
2023/11/11 21:20:47;;;;;;;13.70;4.83;;;;;;;;;;6211549;22;20170;-89
2023/11/11 21:23:54;;;;;;;11.23;4.90;;;;;;;;;;6212612;23;20171;-89
2023/11/11 21:27:01;;;;;;;16.70;6.97;;;;;;;;;;6212840;23;20155;-92
2023/11/11 21:30:08;;;;;;;5.97;3.40;;;;;;;;;;6211428;23;20219;-91
2023/11/11 21:33:14;;;;;;;11.17;4.17;;;;;;;;;;6211204;23;20247;-92
2023/11/11 21:36:19;;;;;;;8.80;4.33;;;;;;;;;;6211158;22;20164;-88
2023/11/11 21:39:25;;;;;;;10.70;4.67;;;;;;;;;;6212890;23;20171;-89
2023/11/11 21:42:32;;;;;;;47.00;20.50;;;;;;;;;;6211684;23;20171;-89
2023/11/11 21:45:37;;;;;;;13.73;4.03;;;;;;;;;;6211847;22;20168;-90
2023/11/11 21:48:42;;;;;;;9.80;3.93;;;;;;;;;;6214445;23;20168;-88
2023/11/11 21:51:48;;;;;;;9.80;4.23;;;;;;;;;;6212848;23;20401;-90
2023/11/11 21:54:54;;;;;;;11.67;4.83;;;;;;;;;;6211200;23;20219;-88
2023/11/11 21:58:01;;;;;;;6.87;4.10;;;;;;;;;;6210121;23;20241;-93
2023/11/11 22:01:06;;;;;;;10.70;4.30;;;;;;;;;;6211710;23;20171;-92
2023/11/11 22:04:11;;;;;;;8.93;4.40;;;;;;;;;;6211624;23;20178;-90
2023/11/11 22:07:17;;;;;;;12.10;5.17;;;;;;;;;;6209814;23;20190;-90
2023/11/11 22:10:22;;;;;;;13.03;6.00;;;;;;;;;;6209462;23;20214;-90
2023/11/11 22:13:29;;;;;;;13.17;5.57;;;;;;;;;;6210744;22;20175;-89
2023/11/11 22:16:34;;;;;;;8.90;4.53;;;;;;;;;;6209123;23;20187;-92
2023/11/11 22:19:40;;;;;;;13.97;5.90;;;;;;;;;;6209251;23;20685;-91
2023/11/11 22:22:45;;;;;;;13.63;5.63;;;;;;;;;;6207531;23;20178;-90
2023/11/11 22:25:50;;;;;;;8.77;4.47;;;;;;;;;;6207797;23;20190;-90
2023/11/11 22:28:57;;;;;;;8.53;4.50;;;;;;;;;;6207332;23;20254;-88
2023/11/11 22:32:03;;;;;;;11.17;4.80;;;;;;;;;;6208962;23;20195;-92
2023/11/11 22:35:09;;;;;;;8.90;4.87;;;;;;;;;;6212226;23;20166;-89
2023/11/11 22:38:16;;;;;;;11.93;5.20;;;;;;;;;;6208553;23;20171;-92
2023/11/11 22:41:24;;;;;;;10.13;4.63;;;;;;;;;;6209307;23;20163;-92
2023/11/11 22:44:31;;;;;;;10.27;5.20;;;;;;;;;;6208874;23;20171;-88
2023/11/11 22:47:36;;;;;;;10.27;4.77;;;;;;;;;;6209252;23;20207;-91
2023/11/11 22:50:42;;;;;;;8.40;4.50;;;;;;;;;;6210559;23;20163;-92
2023/11/11 22:53:47;;;;;;;10.23;4.77;;;;;;;;;;6191270;23;20622;-90
2023/11/11 22:56:52;;;;;;;12.67;4.43;;;;;;;;;;6210008;23;20158;-92
2023/11/11 22:59:59;;;;;;;7.17;4.67;;;;;;;;;;6209879;23;20171;-89
2023/11/11 23:03:07;;;;;;;12.30;4.40;;;;;;;;;;6210887;23;20163;-92
2023/11/11 23:06:13;;;;;;;8.30;4.20;;;;;;;;;;6210107;23;20171;-89
2023/11/11 23:09:21;;;;;;;9.17;4.70;;;;;;;;;;6212484;23;20199;-89
2023/11/11 23:12:26;;;;;;;10.53;4.80;;;;;;;;;;6210190;23;20195;-88
2023/11/11 23:15:33;;;;;;;10.57;4.80;;;;;;;;;;6209841;23;20187;-89
2023/11/11 23:18:38;;;;;;;8.90;4.27;;;;;;;;;;6209630;23;20168;-89
2023/11/11 23:21:44;;;;;;;11.33;5.43;;;;;;;;;;6209377;22;20218;-89
2023/11/11 23:24:49;;;;;;;13.43;5.37;;;;;;;;;;6208519;22;20246;-87
2023/11/11 23:27:54;;;;;;;13.00;5.90;;;;;;;;;;6211337;23;20162;-91
2023/11/11 23:31:02;;;;;;;10.13;5.17;;;;;;;;;;6208713;23;20527;-92
2023/11/11 23:34:07;;;;;;;8.13;4.83;;;;;;;;;;6208942;23;20167;-92
2023/11/11 23:37:13;;;;;;;8.50;4.60;;;;;;;;;;6208526;23;20159;-88
2023/11/11 23:40:18;;;;;;;12.70;5.47;;;;;;;;;;6210026;23;20163;-87
2023/11/11 23:43:24;;;;;;;8.40;4.87;;;;;;;;;;6210361;23;20167;-86
2023/11/11 23:46:32;;;;;;;15.30;5.53;;;;;;;;;;6209407;23;20226;-91
2023/11/11 23:49:37;;;;;;;15.97;6.27;;;;;;;;;;6209477;23;20664;-87
2023/11/11 23:52:42;;;;;;;14.17;6.43;;;;;;;;;;6209622;22;20174;-88
2023/11/11 23:55:48;;;;;;;10.87;5.70;;;;;;;;;;6211285;23;20175;-87
2023/11/11 23:58:55;;;;;;;13.43;6.23;;;;;;;;;;6209988;23;20166;-90
